createdAt,value
2019-04-18T00:02:12.893Z,51.90
2019-04-18T00:04:55.181Z,52.10
2019-04-18T00:07:24.545Z,52.90
2019-04-18T00:09:56.323Z,54.00
2019-04-18T00:12:23.741Z,54.30
2019-04-18T00:14:52.209Z,54.20
2019-04-18T00:17:20.707Z,54.40
2019-04-18T00:19:49.164Z,53.80
2019-04-18T00:22:17.661Z,54.70
2019-04-18T00:24:46.439Z,55.10
2019-04-18T00:27:16.561Z,55.50
2019-04-18T00:29:45.245Z,56.10
2019-04-18T00:32:15.146Z,55.90
2019-04-18T00:34:44.127Z,56.50
2019-04-18T00:37:12.901Z,56.30
2019-04-18T00:39:41.698Z,56.80
2019-04-18T00:42:10.198Z,56.60
2019-04-18T00:44:39.805Z,57.10
2019-04-18T00:47:09.035Z,57.60
2019-04-18T00:49:37.604Z,56.90
2019-04-18T00:52:06.038Z,57.20
2019-04-18T00:54:34.439Z,57.70
2019-04-18T00:57:02.882Z,57.70
2019-04-18T00:59:31.313Z,57.80
2019-04-18T01:02:00.302Z,59.00
2019-04-18T01:04:33.092Z,58.90
2019-04-18T01:06:59.227Z,58.40
2019-04-18T01:09:28.001Z,59.40
2019-04-18T01:11:59.651Z,58.80
2019-04-18T01:14:26.803Z,59.80
2019-04-18T01:16:58.434Z,60.10
2019-04-18T01:19:25.696Z,60.00
2019-04-18T01:21:54.213Z,59.60
2019-04-18T01:24:27.902Z,60.90
2019-04-18T01:26:53.194Z,59.60
2019-04-18T01:29:21.990Z,60.70
2019-04-18T01:31:50.433Z,61.10
2019-04-18T01:34:18.970Z,60.90
2019-04-18T01:40:19.128Z,60.80
2019-04-18T01:42:48.556Z,60.60
2019-04-18T01:45:28.443Z,60.50
2019-04-18T01:48:01.015Z,60.60
2019-04-18T01:50:27.563Z,61.50
2019-04-18T01:52:59.543Z,63.30
2019-04-18T01:55:26.166Z,61.80
2019-04-18T01:57:57.014Z,61.90
2019-04-18T02:00:25.470Z,62.70
2019-04-18T02:02:56.134Z,63.40
2019-04-18T02:05:24.493Z,64.10
2019-04-18T02:07:52.930Z,63.30
2019-04-18T02:10:22.249Z,63.20
2019-04-18T02:12:50.704Z,65.20
2019-04-18T02:15:19.359Z,65.60
2019-04-18T02:17:49.835Z,64.90
2019-04-18T02:20:21.222Z,66.40
2019-04-18T02:22:49.761Z,65.90
2019-04-18T02:25:18.332Z,65.70
2019-04-18T02:27:46.829Z,66.50
2019-04-18T02:30:20.922Z,65.60
2019-04-18T02:32:45.543Z,65.70
2019-04-18T02:35:21.222Z,66.60
2019-04-18T02:37:45.414Z,66.40
2019-04-18T02:40:15.193Z,67.40
2019-04-18T02:42:49.439Z,67.10
2019-04-18T02:45:15.880Z,68.70
2019-04-18T02:47:44.388Z,68.80
2019-04-18T02:50:14.053Z,69.10
2019-04-18T02:52:42.888Z,69.60
2019-04-18T02:55:17.013Z,70.50
2019-04-18T02:57:45.758Z,70.10
2019-04-18T03:00:19.033Z,70.40
2019-04-18T03:02:48.847Z,70.40
2019-04-18T03:05:31.985Z,72.20
2019-04-18T03:07:47.593Z,71.90
2019-04-18T03:10:16.535Z,73.10
2019-04-18T03:12:45.146Z,72.60
2019-04-18T03:15:18.551Z,72.90
2019-04-18T03:17:44.321Z,73.40
2019-04-18T03:20:18.770Z,73.50
2019-04-18T03:22:43.157Z,74.70
2019-04-18T03:25:11.971Z,74.50
2019-04-18T03:27:41.051Z,75.70
2019-04-18T03:30:10.079Z,76.30
2019-04-18T03:32:38.842Z,76.30
2019-04-18T03:35:07.731Z,77.50
2019-04-18T03:37:37.430Z,78.00
2019-04-18T03:40:07.740Z,78.20
2019-04-18T03:42:36.160Z,78.20
2019-04-18T03:45:24.546Z,78.70
2019-04-18T03:47:54.998Z,78.90
2019-04-18T03:50:23.492Z,79.60
2019-04-18T03:52:52.291Z,80.00
2019-04-18T03:55:21.792Z,79.30
2019-04-18T03:57:51.448Z,83.00
2019-04-18T04:00:25.363Z,80.40
2019-04-18T04:02:52.108Z,82.70
2019-04-18T04:05:20.609Z,81.60
2019-04-18T04:07:49.183Z,80.40
2019-04-18T04:10:17.714Z,82.30
2019-04-18T04:12:46.300Z,80.30
2019-04-18T04:15:18.336Z,82.20
2019-04-18T04:17:59.395Z,81.20
2019-04-18T04:20:30.897Z,80.90
2019-04-18T04:22:59.579Z,81.60
2019-04-18T04:25:28.308Z,81.80
2019-04-18T04:27:56.996Z,83.50
2019-04-18T04:30:25.675Z,83.00
2019-04-18T04:32:57.854Z,84.00
2019-04-18T04:35:25.922Z,83.20
2019-04-18T04:37:54.333Z,83.80
2019-04-18T04:40:28.910Z,86.40
2019-04-18T04:42:53.597Z,84.40
2019-04-18T04:45:22.065Z,84.60
2019-04-18T04:47:54.777Z,85.20
2019-04-18T04:50:42.521Z,84.10
2019-04-18T04:53:11.597Z,84.40
2019-04-18T04:55:41.703Z,88.40
2019-04-18T04:58:18.109Z,87.20
2019-04-18T05:00:48.191Z,85.30
2019-04-18T05:03:18.173Z,86.60
2019-04-18T05:05:46.955Z,86.40
2019-04-18T05:08:15.923Z,87.60
2019-04-18T05:10:47.918Z,85.10
2019-04-18T05:13:15.119Z,87.20
2019-04-18T05:15:43.555Z,86.20
2019-04-18T05:18:12.142Z,86.20
2019-04-18T05:20:40.640Z,86.10
2019-04-18T05:23:09.068Z,85.30
2019-04-18T05:25:37.480Z,86.10
2019-04-18T05:28:05.914Z,86.40
2019-04-18T05:30:37.093Z,87.10
2019-04-18T05:33:08.860Z,90.10
2019-04-18T05:35:34.995Z,87.20
2019-04-18T05:38:03.403Z,88.00
2019-04-18T05:40:35.784Z,85.40
2019-04-18T05:43:01.978Z,86.00
2019-04-18T05:45:30.409Z,88.70
2019-04-18T05:48:00.804Z,88.20
2019-04-18T05:50:42.242Z,86.20
2019-04-18T05:53:17.563Z,87.90
2019-04-18T05:55:46.006Z,87.40
2019-04-18T05:58:19.529Z,87.40
2019-04-18T06:00:52.569Z,87.90
2019-04-18T06:03:28.730Z,84.30
2019-04-18T06:06:15.457Z,84.10
2019-04-18T06:08:40.702Z,86.20
2019-04-18T06:11:14.566Z,84.90
2019-04-18T06:13:44.758Z,83.30
2019-04-18T06:16:29.149Z,86.00
2019-04-18T06:19:05.649Z,83.40
2019-04-18T06:21:45.651Z,82.70
2019-04-18T06:24:14.226Z,83.80
2019-04-18T06:26:44.372Z,82.80
2019-04-18T06:29:20.170Z,82.90
2019-04-18T06:31:55.963Z,83.70
2019-04-18T06:34:26.259Z,84.60
2019-04-18T06:36:55.169Z,83.00
2019-04-18T06:39:25.412Z,82.40
2019-04-18T06:42:04.135Z,83.90
2019-04-18T06:44:34.142Z,83.00
2019-04-18T06:47:02.681Z,83.60
2019-04-18T06:49:39.701Z,83.00
2019-04-18T06:52:07.837Z,83.80
2019-04-18T06:54:38.645Z,82.60
2019-04-18T06:57:07.659Z,84.80
2019-04-18T06:59:36.265Z,82.80
2019-04-18T07:02:05.070Z,83.10
2019-04-18T07:04:34.922Z,84.00
2019-04-18T07:07:03.362Z,84.30
2019-04-18T07:09:54.402Z,84.60
2019-04-18T07:12:22.413Z,83.30
2019-04-18T07:14:50.873Z,85.50
2019-04-18T07:17:22.223Z,83.00
2019-04-18T07:19:51.494Z,83.70
2019-04-18T07:22:21.823Z,82.20
2019-04-18T07:24:50.288Z,83.30
2019-04-18T07:27:18.746Z,84.50
2019-04-18T07:29:47.201Z,82.10
2019-04-18T07:32:16.017Z,84.00
2019-04-18T07:34:44.514Z,83.30
2019-04-18T07:37:16.739Z,83.40
2019-04-18T07:39:43.583Z,83.00
2019-04-18T07:42:12.303Z,83.10
2019-04-18T07:44:42.481Z,83.80
2019-04-18T07:47:12.677Z,83.80
2019-04-18T07:49:41.087Z,82.90
2019-04-18T07:52:09.526Z,84.00
2019-04-18T07:54:38.308Z,84.00
2019-04-18T07:57:08.108Z,82.10
2019-04-18T07:59:36.766Z,84.20
2019-04-18T08:02:05.494Z,83.10
2019-04-18T08:04:34.293Z,83.90
2019-04-18T08:07:02.734Z,82.40
2019-04-18T08:09:36.822Z,82.60
2019-04-18T08:12:01.288Z,83.30
2019-04-18T08:14:29.993Z,83.70
2019-04-18T08:16:58.407Z,82.80
2019-04-18T08:19:26.849Z,82.30
2019-04-18T08:21:55.589Z,81.30
2019-04-18T08:24:24.007Z,81.80
2019-04-18T08:26:52.418Z,82.00
2019-04-18T08:29:27.641Z,80.90
2019-04-18T08:31:51.415Z,81.30
2019-04-18T08:34:20.314Z,79.40
2019-04-18T08:36:49.767Z,79.00
2019-04-18T08:39:39.413Z,79.00
2019-04-18T08:42:24.783Z,79.30
2019-04-18T08:44:55.356Z,81.50
2019-04-18T08:47:24.832Z,79.00
2019-04-18T08:49:54.969Z,79.00
2019-04-18T08:52:24.155Z,77.00
2019-04-18T08:54:54.210Z,78.00
2019-04-18T08:57:25.018Z,78.60
2019-04-18T08:59:53.858Z,76.30
2019-04-18T09:02:24.125Z,75.60
2019-04-18T09:04:54.411Z,75.90
2019-04-18T09:07:22.734Z,75.30
2019-04-18T09:09:51.678Z,74.10
2019-04-18T09:12:20.869Z,73.20
2019-04-18T09:14:50.699Z,75.10
2019-04-18T09:17:20.091Z,70.80
2019-04-18T09:19:49.231Z,71.00
2019-04-18T09:22:18.072Z,69.70
2019-04-18T09:24:47.158Z,67.20
2019-04-18T09:27:20.433Z,68.70
2019-04-18T09:29:53.820Z,66.00
2019-04-18T09:32:16.273Z,65.60
2019-04-18T09:34:44.920Z,65.60
2019-04-18T09:37:13.350Z,64.90
2019-04-18T09:39:43.006Z,63.80
2019-04-18T09:42:12.016Z,62.30
2019-04-18T09:44:40.472Z,63.40
2019-04-18T09:47:12.350Z,61.90
2019-04-18T09:49:39.272Z,61.80
2019-04-18T09:52:08.406Z,58.80
2019-04-18T09:54:38.218Z,59.60
2019-04-18T09:57:07.497Z,61.90
2019-04-18T09:59:35.977Z,59.00
2019-04-18T10:02:04.528Z,59.00
2019-04-18T10:04:32.953Z,58.70
2019-04-18T10:07:01.738Z,59.50
2019-04-18T10:09:30.150Z,59.40
2019-04-18T10:11:58.574Z,60.80
2019-04-18T10:14:27.331Z,58.90
2019-04-18T10:16:56.126Z,57.30
2019-04-18T10:19:26.582Z,60.00
2019-04-18T10:21:56.907Z,58.20
2019-04-18T10:24:29.641Z,58.40
2019-04-18T10:27:02.572Z,56.60
2019-04-18T10:29:51.554Z,56.50
2019-04-18T10:32:18.220Z,56.90
2019-04-18T10:34:46.661Z,56.40
2019-04-18T10:37:15.550Z,56.40
2019-04-18T10:39:44.414Z,55.90
2019-04-18T10:42:12.842Z,56.60
2019-04-18T10:44:41.255Z,55.40
2019-04-18T10:47:09.768Z,54.40
2019-04-18T10:49:38.181Z,57.00
2019-04-18T10:52:06.871Z,56.10
2019-04-18T10:54:35.295Z,57.20
2019-04-18T10:57:04.516Z,57.00
2019-04-18T10:59:33.129Z,54.90
2019-04-18T11:02:01.566Z,54.70
2019-04-18T11:04:30.260Z,55.00
2019-04-18T11:06:58.963Z,55.50
2019-04-18T11:09:27.379Z,53.90
2019-04-18T11:11:56.200Z,53.80
2019-04-18T11:14:24.811Z,53.80
2019-04-18T11:16:53.585Z,54.10
2019-04-18T11:19:22.383Z,52.20
2019-04-18T11:21:51.233Z,52.40
2019-04-18T11:24:19.755Z,51.10
2019-04-18T11:26:48.606Z,51.90
2019-04-18T11:29:17.126Z,51.60
2019-04-18T11:31:45.839Z,50.30
2019-04-18T11:34:14.554Z,47.70
2019-04-18T11:36:43.251Z,48.30
2019-04-18T11:39:11.653Z,48.50
2019-04-18T11:41:40.444Z,47.40
2019-04-18T11:44:08.850Z,46.30
2019-04-18T11:46:37.267Z,44.70
2019-04-18T11:49:06.038Z,45.10
2019-04-18T11:51:34.815Z,42.50
2019-04-18T11:54:04.172Z,42.70
2019-04-18T11:56:32.728Z,41.00
2019-04-18T11:59:05.457Z,40.60
2019-04-18T12:01:35.541Z,39.20
2019-04-18T12:04:15.420Z,39.30
2019-04-18T12:06:43.913Z,39.50
2019-04-18T12:09:12.337Z,37.80
2019-04-18T12:11:40.771Z,38.70
2019-04-18T12:14:09.241Z,36.50
2019-04-18T12:16:39.309Z,36.50
2019-04-18T12:19:08.212Z,35.70
2019-04-18T12:21:36.767Z,35.70
2019-04-18T12:24:05.331Z,34.10
2019-04-18T12:26:33.761Z,34.30
2019-04-18T12:29:02.174Z,34.60
2019-04-18T12:31:31.338Z,33.40
2019-04-18T12:34:00.119Z,33.00
2019-04-18T12:36:28.587Z,33.60
2019-04-18T12:38:57.081Z,32.90
2019-04-18T12:41:26.462Z,32.40
2019-04-18T12:43:55.437Z,33.10
2019-04-18T12:46:23.896Z,32.40
2019-04-18T12:48:52.341Z,32.50
2019-04-18T12:51:20.890Z,31.60
2019-04-18T12:53:49.333Z,31.80
2019-04-18T12:56:18.245Z,32.50
2019-04-18T12:58:47.102Z,30.10
2019-04-18T13:01:15.651Z,29.90
2019-04-18T13:03:44.867Z,30.60
2019-04-18T13:06:13.536Z,30.00
2019-04-18T13:08:58.820Z,30.60
2019-04-18T13:11:28.914Z,29.60
2019-04-18T13:14:02.035Z,30.30
2019-04-18T13:16:32.463Z,29.70
2019-04-18T13:21:31.776Z,29.80
2019-04-18T13:24:00.320Z,29.10
2019-04-18T13:25:49.591Z,29.70
2019-04-18T13:26:28.738Z,28.80
2019-04-18T13:28:58.081Z,29.10
2019-04-18T13:31:26.810Z,28.80
2019-04-18T13:33:55.614Z,28.30
2019-04-18T13:36:24.311Z,28.50
2019-04-18T13:38:52.783Z,28.70
2019-04-18T13:41:21.516Z,28.70
2019-04-18T13:43:50.057Z,28.20
2019-04-18T13:46:18.535Z,27.90
2019-04-18T13:48:47.016Z,27.90
2019-04-18T13:51:15.447Z,27.90
2019-04-18T13:53:56.280Z,27.80
2019-04-18T13:56:14.090Z,27.70
2019-04-18T13:58:42.505Z,27.90
2019-04-18T14:01:11.297Z,27.40
2019-04-18T14:03:39.713Z,27.90
2019-04-18T14:06:08.567Z,28.20
2019-04-18T14:08:36.957Z,26.90
2019-04-18T14:11:05.393Z,26.60
2019-04-18T14:13:33.899Z,26.10
2019-04-18T14:16:02.405Z,26.50
2019-04-18T14:18:31.159Z,26.00
2019-04-18T14:20:59.567Z,25.90
2019-04-18T14:23:28.026Z,27.00
2019-04-18T14:25:56.457Z,26.30
2019-04-18T14:28:25.239Z,26.10
2019-04-18T14:30:53.694Z,25.60
2019-04-18T14:33:22.351Z,25.70
2019-04-18T14:35:50.785Z,26.30
2019-04-18T14:38:19.711Z,25.10
2019-04-18T14:40:48.221Z,25.00
2019-04-18T14:43:20.363Z,25.20
2019-04-18T14:45:48.198Z,25.50
2019-04-18T14:48:19.061Z,25.20
2019-04-18T14:50:46.940Z,25.40
2019-04-18T14:53:15.516Z,25.00
2019-04-18T14:55:43.923Z,25.20
2019-04-18T14:58:12.327Z,25.70
2019-04-18T15:00:44.200Z,26.20
2019-04-18T15:03:10.956Z,25.20
2019-04-18T15:05:39.639Z,25.30
2019-04-18T15:08:08.305Z,25.30
2019-04-18T15:11:16.020Z,25.30
2019-04-18T15:14:42.120Z,25.90
2019-04-18T15:17:10.609Z,25.30
2019-04-18T15:19:39.034Z,25.30
2019-04-18T15:22:13.285Z,24.80
2019-04-18T15:24:39.652Z,24.70
2019-04-18T15:27:08.219Z,25.00
2019-04-18T15:29:36.904Z,25.20
2019-04-18T15:32:05.715Z,25.40
2019-04-18T15:34:34.150Z,25.40
2019-04-18T15:37:03.436Z,25.10
2019-04-18T15:39:31.948Z,25.30
2019-04-18T15:42:00.629Z,24.90
2019-04-18T15:44:29.608Z,24.70
2019-04-18T15:46:59.810Z,24.50
2019-04-18T15:49:28.218Z,24.60
2019-04-18T15:51:57.058Z,24.90
2019-04-18T15:54:25.588Z,24.50
2019-04-18T15:56:54.100Z,24.40
2019-04-18T15:59:22.619Z,24.50
2019-04-18T16:01:52.155Z,23.70
2019-04-18T16:04:21.254Z,23.50
2019-04-18T16:06:50.029Z,24.00
2019-04-18T16:09:19.174Z,24.30
2019-04-18T16:11:47.917Z,24.60
2019-04-18T16:14:25.218Z,25.10
2019-04-18T16:16:53.679Z,25.00
2019-04-18T16:19:22.452Z,24.40
2019-04-18T16:21:50.875Z,24.20
2019-04-18T16:24:20.430Z,24.70
2019-04-18T16:26:49.506Z,24.80
2019-04-18T16:29:18.104Z,24.80
2019-04-18T16:31:47.157Z,24.40
2019-04-18T16:34:15.566Z,24.50
2019-04-18T16:36:44.257Z,25.00
2019-04-18T16:39:12.763Z,25.40
2019-04-18T16:41:41.470Z,25.10
2019-04-18T16:44:09.873Z,25.70
2019-04-18T16:46:38.392Z,25.30
2019-04-18T16:49:06.921Z,25.40
2019-04-18T16:51:35.630Z,24.80
2019-04-18T16:54:04.128Z,24.50
2019-04-18T16:56:32.609Z,24.70
2019-04-18T16:59:01.027Z,24.60
2019-04-18T17:01:29.454Z,24.40
2019-04-18T17:04:11.750Z,24.00
2019-04-18T17:06:28.448Z,24.60
2019-04-18T17:08:57.134Z,24.20
2019-04-18T17:11:25.676Z,25.40
2019-04-18T17:13:54.083Z,25.00
2019-04-18T17:16:22.652Z,24.30
2019-04-18T17:18:51.072Z,24.10
2019-04-18T17:21:19.512Z,24.90
2019-04-18T17:23:48.445Z,24.50
2019-04-18T17:26:17.325Z,25.30
2019-04-18T17:28:45.744Z,25.30
2019-04-18T17:31:15.772Z,25.30
2019-04-18T17:33:44.204Z,25.80
2019-04-18T17:36:30.407Z,25.70
2019-04-18T17:38:59.059Z,26.30
2019-04-18T17:41:20.279Z,26.90
2019-04-18T17:43:50.617Z,27.70
2019-04-18T17:46:18.645Z,28.30
2019-04-18T17:48:46.149Z,28.60
2019-04-18T17:51:25.010Z,28.40
2019-04-18T17:53:52.996Z,29.10
2019-04-18T17:56:22.695Z,30.80
2019-04-18T17:58:46.703Z,30.10
2019-04-18T18:01:15.458Z,31.00
2019-04-18T18:03:49.572Z,31.50
2019-04-18T18:06:20.754Z,31.40
2019-04-18T18:08:50.054Z,31.70
2019-04-18T18:11:16.267Z,32.50
2019-04-18T18:13:45.282Z,32.60
2019-04-18T18:16:23.992Z,33.00
2019-04-18T18:18:47.986Z,33.20
2019-04-18T18:21:18.357Z,34.30
2019-04-18T18:23:50.500Z,33.80
2019-04-18T18:26:23.637Z,34.50
2019-04-18T18:28:48.724Z,34.10
2019-04-18T18:31:20.784Z,34.50
2019-04-18T18:33:56.680Z,34.20
2019-04-18T18:36:27.395Z,34.70
2019-04-18T18:38:53.800Z,34.80
2019-04-18T18:41:23.144Z,35.40
2019-04-18T18:44:01.284Z,35.40
2019-04-18T18:46:23.331Z,35.20
2019-04-18T18:48:54.371Z,36.10
2019-04-18T18:51:23.743Z,35.70
2019-04-18T18:53:53.418Z,36.60
2019-04-18T18:56:24.280Z,36.40
2019-04-18T18:58:55.122Z,36.10
2019-04-18T19:01:26.603Z,36.90
2019-04-18T19:03:52.831Z,36.70
2019-04-18T19:06:27.643Z,36.30
2019-04-18T19:09:09.908Z,36.80
2019-04-18T19:11:37.245Z,37.20
2019-04-18T19:14:06.119Z,37.10
2019-04-18T19:16:35.066Z,36.80
2019-04-18T19:18:53.154Z,38.20
2019-04-18T19:21:23.081Z,37.70
2019-04-18T19:23:51.811Z,37.60
2019-04-18T19:26:24.685Z,37.40
2019-04-18T19:29:01.729Z,37.40
2019-04-18T19:31:22.853Z,37.70
2019-04-18T19:33:52.967Z,37.20
2019-04-18T19:36:44.691Z,37.10
2019-04-18T19:39:10.849Z,37.70
2019-04-18T19:41:38.708Z,37.60
2019-04-18T19:43:52.160Z,37.60
2019-04-18T19:46:24.579Z,38.30
2019-04-18T19:48:52.230Z,37.70
2019-04-18T19:51:23.719Z,38.60
2019-04-18T19:53:58.408Z,38.30
2019-04-18T19:56:21.772Z,37.40
2019-04-18T19:58:50.478Z,38.60
2019-04-18T20:01:21.269Z,38.70
2019-04-18T20:03:50.035Z,38.50
2019-04-18T20:06:32.446Z,38.50
2019-04-18T20:09:05.976Z,38.40
2019-04-18T20:11:30.251Z,38.90
2019-04-18T20:13:58.537Z,38.90
2019-04-18T20:16:20.200Z,39.10
2019-04-18T20:18:48.737Z,38.70
2019-04-18T20:21:17.473Z,40.10
2019-04-18T20:23:45.967Z,39.10
2019-04-18T20:26:15.864Z,38.90
2019-04-18T20:28:47.458Z,39.40
2019-04-18T20:31:19.013Z,38.80
2019-04-18T20:33:48.229Z,39.60
2019-04-18T20:39:14.180Z,39.80
2019-04-18T20:41:49.424Z,39.20
2019-04-18T20:44:00.366Z,39.10
2019-04-18T20:46:17.105Z,40.00
2019-04-18T20:49:06.938Z,39.70
2019-04-18T20:51:33.091Z,39.10
2019-04-18T20:54:06.246Z,39.90
2019-04-18T20:56:17.635Z,40.80
2019-04-18T20:58:46.312Z,40.20
2019-04-18T21:01:14.909Z,39.40
2019-04-18T21:03:44.374Z,40.60
2019-04-18T21:06:18.419Z,40.10
2019-04-18T21:08:57.221Z,40.30
2019-04-18T21:11:15.637Z,39.90
2019-04-18T21:13:44.383Z,40.20
2019-04-18T21:16:15.362Z,40.10
2019-04-18T21:18:48.059Z,40.70
2019-04-18T21:21:13.758Z,40.40
2019-04-18T21:23:42.204Z,40.90
2019-04-18T21:26:31.913Z,41.20
2019-04-18T21:29:05.164Z,40.70
2019-04-18T21:31:30.661Z,41.40
2019-04-18T21:34:04.242Z,41.80
2019-04-18T21:36:30.287Z,41.70
2019-04-18T21:39:02.507Z,42.40
2019-04-18T21:41:29.920Z,42.50
2019-04-18T21:44:03.769Z,42.50
2019-04-18T21:46:29.199Z,42.40
2019-04-18T21:49:01.093Z,42.50
2019-04-18T21:51:29.208Z,42.60
2019-04-18T21:54:04.006Z,42.50
2019-04-18T21:56:29.625Z,42.90
2019-04-18T21:59:09.093Z,43.20
2019-04-18T22:01:38.664Z,42.70
2019-04-18T22:04:05.427Z,44.20
2019-04-18T22:06:41.913Z,43.60
2019-04-18T22:09:09.972Z,43.90
2019-04-18T22:11:39.840Z,44.00
2019-04-18T22:14:10.733Z,44.10
2019-04-18T22:16:39.897Z,43.90
2019-04-18T22:19:08.676Z,44.80
2019-04-18T22:21:40.148Z,44.10
2019-04-18T22:24:08.257Z,44.80
2019-04-18T22:26:38.304Z,45.00
2019-04-18T22:29:09.592Z,44.60
2019-04-18T22:31:37.544Z,44.90
2019-04-18T22:34:14.382Z,44.90
2019-04-18T22:36:37.930Z,44.90
2019-04-18T22:39:19.610Z,45.00
2019-04-18T22:41:42.907Z,45.20
2019-04-18T22:44:18.119Z,45.10
2019-04-18T22:46:41.882Z,45.10
2019-04-18T22:49:16.269Z,45.20
2019-04-18T22:51:45.063Z,44.80
2019-04-18T22:54:11.310Z,45.10
2019-04-18T22:56:47.533Z,45.60
2019-04-18T22:59:14.829Z,45.50
2019-04-18T23:01:45.030Z,45.20
2019-04-18T23:04:16.199Z,45.70
2019-04-18T23:06:42.135Z,45.80
2019-04-18T23:09:15.206Z,45.90
2019-04-18T23:11:49.820Z,46.40
2019-04-18T23:14:14.064Z,46.50
2019-04-18T23:16:46.345Z,46.40
2019-04-18T23:19:13.935Z,47.20
2019-04-18T23:21:51.168Z,46.40
2019-04-18T23:24:12.795Z,46.80
2019-04-18T23:26:51.199Z,46.50
2019-04-18T23:29:12.696Z,47.20
2019-04-18T23:31:47.416Z,47.20
2019-04-18T23:34:11.647Z,47.20
2019-04-18T23:36:47.200Z,47.20
2019-04-18T23:39:17.197Z,46.70
2019-04-18T23:41:40.841Z,47.00
2019-04-18T23:44:15.439Z,47.60
2019-04-18T23:46:40.446Z,48.40
2019-04-18T23:49:17.626Z,48.40
2019-04-18T23:51:42.701Z,48.00
2019-04-18T23:54:12.420Z,48.00
2019-04-18T23:56:43.987Z,48.00
2019-04-18T23:59:10.717Z,48.70
